Onecure — WDJ7457 — position and weather

sailwx.info

Track history (hours):
 
Tides and Currents Weather Stations Pressure Air Temp Water Temp Dewpoint Dewpoint Depression Visibility Wind Speed Wind Dir Waves Ship Positions

Onecure

Owner: Harley Marine Services, Inc., Seattle, WA. More information available from US FCC via Universal Licensing System and Coast Guard Vessel Documentation Center.

Last reported at 2018-Jan-24 09:28 UTC. Time now 2018-Jan-24 09:55 UTC.
Position N 48°54' W 123°09'.

Length 38 m; draft 4.5 m.

Type: . MMSI: 368006870.

Date/timePositionNaut miles runAvg speedWind from/ knotsBaromVisibWave heightAir tempDewpointWater temp
2018-Jan-24 09:28N 48°54' W 123°09'4 7.6
2018-Jan-24 08:59N 48°56' W 123°13'4 7.6
2018-Jan-24 08:30N 48°59' W 123°17'4 7.3
2018-Jan-24 08:00N 49°01' W 123°21'4 7.2
2018-Jan-24 07:25N 49°04' W 123°26'3 7.4
2018-Jan-24 07:00N 49°06' W 123°29'4 7.7
2018-Jan-24 06:30N 49°08' W 123°34'4 7.6
2018-Jan-24 06:00N 49°11' W 123°38'4 8.0
2018-Jan-24 05:30N 49°14' W 123°42'4 7.8
2018-Jan-24 05:00N 49°16' W 123°47'4 8.0
2018-Jan-24 04:29N 49°19' W 123°51'8 7.2
2018-Jan-24 03:19N 49°25' W 124°01'13 6.7
2018-Jan-24 01:21N 49°32' W 124°18'3 7.4
2018-Jan-24 01:00N 49°34' W 124°21'4 7.5
2018-Jan-24 00:29N 49°36' W 124°26'3 6.9
2018-Jan-24 00:00N 49°38' W 124°30'4 7.0
2018-Jan-23 23:30N 49°40' W 124°35'3 6.7
2018-Jan-23 23:00N 49°42' W 124°39'3 6.6
2018-Jan-23 22:30N 49°44' W 124°42'3 6.6
2018-Jan-23 22:00N 49°46' W 124°46'3 5.7
2018-Jan-23 21:28N 49°48' W 124°50'3 5.7
2018-Jan-23 21:00N 49°50' W 124°53'3 5.8
2018-Jan-23 20:30N 49°52' W 124°57'3 6.5
2018-Jan-23 20:00N 49°54' W 125°00'3 6.4
2018-Jan-23 19:29N 49°56' W 125°04'3 6.1
2018-Jan-23 18:58N 49°58' W 125°08'3 5.9
2018-Jan-23 18:29N 49°59' W 125°12'3 5.5
2018-Jan-23 18:00N 50°02' W 125°13'4 7.3
2018-Jan-23 17:30N 50°05' W 125°16'4 8.0
2018-Jan-23 17:01N 50°08' W 125°21'4 8.6
2018-Jan-23 16:30N 50°12' W 125°22'5 8.9
2018-Jan-23 16:00N 50°16' W 125°24'5 9.3
2018-Jan-23 15:30N 50°21' W 125°26'1 1.7
2018-Jan-23 15:00N 50°20' W 125°25'0 0.9
2018-Jan-23 14:29N 50°19' W 125°25'1 1.1
2018-Jan-23 14:00N 50°19' W 125°25'2 3.8
2018-Jan-23 13:29N 50°17' W 125°24'2 4.3
2018-Jan-23 13:00N 50°19' W 125°26'9 5.3
2018-Jan-23 11:24N 50°22' W 125°38'4 6.7
2018-Jan-23 10:52N 50°22' W 125°44'41 7.4
2018-Jan-23 05:17N 50°36' W 126°45'3 8.6
2018-Jan-23 04:55N 50°38' W 126°48'4 9.4
2018-Jan-23 04:29N 50°41' W 126°53'6 9.2
2018-Jan-23 03:51N 50°43' W 127°02'3 9.2
2018-Jan-23 03:30N 50°44' W 127°07'5 9.5
2018-Jan-23 03:00N 50°46' W 127°13'5 9.4
2018-Jan-23 02:30N 50°48' W 127°20'5 9.0
2018-Jan-23 02:00N 50°50' W 127°27'5 9.1
2018-Jan-23 01:30N 50°52' W 127°33'5 9.5
2018-Jan-23 01:00N 50°55' W 127°39'5 9.7
2018-Jan-23 00:30N 50°58' W 127°45'5 9.3
2018-Jan-23 00:00N 51°02' W 127°47'5 9.3
2018-Jan-22 23:30N 51°07' W 127°49'4 8.8
2018-Jan-22 23:00N 51°11' W 127°51'4 8.8
2018-Jan-22 22:31N 51°15' W 127°54'5 8.8
2018-Jan-22 21:58N 51°20' W 127°56'4 8.4
2018-Jan-22 21:30N 51°23' W 127°58'5 9.1
2018-Jan-22 21:00N 51°26' W 128°05'138 8.2
2018-Jan-22 04:14N 53°25' W 129°56'510.0
2018-Jan-22 03:44N 53°29' W 130°02'4 9.6
2018-Jan-22 03:21N 53°31' W 130°06'7 9.9
2018-Jan-22 02:36N 53°35' W 130°17'1 9.3
2018-Jan-22 02:30N 53°36' W 130°18'5 9.2
2018-Jan-22 02:00N 53°38' W 130°25'5 9.6
2018-Jan-22 01:30N 53°41' W 130°31'5 9.3
2018-Jan-22 01:00N 53°44' W 130°37'4 8.7
2018-Jan-22 00:30N 53°47' W 130°43'4 8.3
2018-Jan-22 00:00N 53°50' W 130°48'4 8.3
2018-Jan-21 23:30N 53°53' W 130°53'4 8.2
2018-Jan-21 23:01N 53°55' W 130°58'4 7.7
2018-Jan-21 22:30N 53°59' W 131°02'4 8.1
2018-Jan-21 22:00N 54°03' W 131°02'4 8.3
2018-Jan-21 21:30N 54°07' W 131°02'4 8.7
2018-Jan-21 21:00N 54°11' W 131°02'5 9.0
2018-Jan-21 20:30N 54°16' W 131°02'4 8.8
2018-Jan-21 20:01N 54°20' W 131°05'5 9.5
2018-Jan-21 19:30N 54°24' W 131°10'5 9.3
2018-Jan-21 19:00N 54°27' W 131°15'5 9.4
2018-Jan-21 18:30N 54°31' W 131°20'6 9.0
2018-Jan-21 17:52N 54°36' W 131°25'151 7.2
2018-Jan-20 21:00N 56°24' W 134°30'320 6.7 050 / 20994.0 5.4 1.1
2018-Jan-18 21:00N 59°12' W 143°00'3030.1 210 / 20 10.8 4.1
2018-Jan-18 20:00N 59°24' W 143°54'   210 / 20988.8 5.4 3.4
Track history (hours):
 
Tides and Currents Weather Stations Pressure Air Temp Water Temp Dewpoint Dewpoint Depression Visibility Wind Speed Wind Dir Waves Ship Positions

Onecure

Owner: Harley Marine Services, Inc., Seattle, WA. More information available from US FCC via Universal Licensing System and Coast Guard Vessel Documentation Center.

Last reported at 2018-Jan-24 09:28 UTC. Time now 2018-Jan-24 09:55 UTC.
Position N 48°54' W 123°09'.

Length 38 m; draft 4.5 m.

Type: . MMSI: 368006870.

Date/timePositionNaut miles runAvg speedWind from/ knotsBaromVisibWave heightAir tempDewpointWater temp
2018-Jan-24 09:28N 48°54' W 123°09'4 7.6
2018-Jan-24 08:59N 48°56' W 123°13'4 7.6
2018-Jan-24 08:30N 48°59' W 123°17'4 7.3
2018-Jan-24 08:00N 49°01' W 123°21'4 7.2
2018-Jan-24 07:25N 49°04' W 123°26'3 7.4
2018-Jan-24 07:00N 49°06' W 123°29'4 7.7
2018-Jan-24 06:30N 49°08' W 123°34'4 7.6
2018-Jan-24 06:00N 49°11' W 123°38'4 8.0
2018-Jan-24 05:30N 49°14' W 123°42'4 7.8
2018-Jan-24 05:00N 49°16' W 123°47'4 8.0
2018-Jan-24 04:29N 49°19' W 123°51'8 7.2
2018-Jan-24 03:19N 49°25' W 124°01'13 6.7
2018-Jan-24 01:21N 49°32' W 124°18'3 7.4
2018-Jan-24 01:00N 49°34' W 124°21'4 7.5
2018-Jan-24 00:29N 49°36' W 124°26'3 6.9
2018-Jan-24 00:00N 49°38' W 124°30'4 7.0
2018-Jan-23 23:30N 49°40' W 124°35'3 6.7
2018-Jan-23 23:00N 49°42' W 124°39'3 6.6
2018-Jan-23 22:30N 49°44' W 124°42'3 6.6
2018-Jan-23 22:00N 49°46' W 124°46'3 5.7
2018-Jan-23 21:28N 49°48' W 124°50'3 5.7
2018-Jan-23 21:00N 49°50' W 124°53'3 5.8
2018-Jan-23 20:30N 49°52' W 124°57'3 6.5
2018-Jan-23 20:00N 49°54' W 125°00'3 6.4
2018-Jan-23 19:29N 49°56' W 125°04'3 6.1
2018-Jan-23 18:58N 49°58' W 125°08'3 5.9
2018-Jan-23 18:29N 49°59' W 125°12'3 5.5
2018-Jan-23 18:00N 50°02' W 125°13'4 7.3
2018-Jan-23 17:30N 50°05' W 125°16'4 8.0
2018-Jan-23 17:01N 50°08' W 125°21'4 8.6
2018-Jan-23 16:30N 50°12' W 125°22'5 8.9
2018-Jan-23 16:00N 50°16' W 125°24'5 9.3
2018-Jan-23 15:30N 50°21' W 125°26'1 1.7
2018-Jan-23 15:00N 50°20' W 125°25'0 0.9
2018-Jan-23 14:29N 50°19' W 125°25'1 1.1
2018-Jan-23 14:00N 50°19' W 125°25'2 3.8
2018-Jan-23 13:29N 50°17' W 125°24'2 4.3
2018-Jan-23 13:00N 50°19' W 125°26'9 5.3
2018-Jan-23 11:24N 50°22' W 125°38'4 6.7
2018-Jan-23 10:52N 50°22' W 125°44'41 7.4
2018-Jan-23 05:17N 50°36' W 126°45'3 8.6
2018-Jan-23 04:55N 50°38' W 126°48'4 9.4
2018-Jan-23 04:29N 50°41' W 126°53'6 9.2
2018-Jan-23 03:51N 50°43' W 127°02'3 9.2
2018-Jan-23 03:30N 50°44' W 127°07'5 9.5
2018-Jan-23 03:00N 50°46' W 127°13'5 9.4
2018-Jan-23 02:30N 50°48' W 127°20'5 9.0
2018-Jan-23 02:00N 50°50' W 127°27'5 9.1
2018-Jan-23 01:30N 50°52' W 127°33'5 9.5
2018-Jan-23 01:00N 50°55' W 127°39'5 9.7
2018-Jan-23 00:30N 50°58' W 127°45'5 9.3
2018-Jan-23 00:00N 51°02' W 127°47'5 9.3
2018-Jan-22 23:30N 51°07' W 127°49'4 8.8
2018-Jan-22 23:00N 51°11' W 127°51'4 8.8
2018-Jan-22 22:31N 51°15' W 127°54'5 8.8
2018-Jan-22 21:58N 51°20' W 127°56'4 8.4
2018-Jan-22 21:30N 51°23' W 127°58'5 9.1
2018-Jan-22 21:00N 51°26' W 128°05'138 8.2
2018-Jan-22 04:14N 53°25' W 129°56'510.0
2018-Jan-22 03:44N 53°29' W 130°02'4 9.6
2018-Jan-22 03:21N 53°31' W 130°06'7 9.9
2018-Jan-22 02:36N 53°35' W 130°17'1 9.3
2018-Jan-22 02:30N 53°36' W 130°18'5 9.2
2018-Jan-22 02:00N 53°38' W 130°25'5 9.6
2018-Jan-22 01:30N 53°41' W 130°31'5 9.3
2018-Jan-22 01:00N 53°44' W 130°37'4 8.7
2018-Jan-22 00:30N 53°47' W 130°43'4 8.3
2018-Jan-22 00:00N 53°50' W 130°48'4 8.3
2018-Jan-21 23:30N 53°53' W 130°53'4 8.2
2018-Jan-21 23:01N 53°55' W 130°58'4 7.7
2018-Jan-21 22:30N 53°59' W 131°02'4 8.1
2018-Jan-21 22:00N 54°03' W 131°02'4 8.3
2018-Jan-21 21:30N 54°07' W 131°02'4 8.7
2018-Jan-21 21:00N 54°11' W 131°02'5 9.0
2018-Jan-21 20:30N 54°16' W 131°02'4 8.8
2018-Jan-21 20:01N 54°20' W 131°05'5 9.5
2018-Jan-21 19:30N 54°24' W 131°10'5 9.3
2018-Jan-21 19:00N 54°27' W 131°15'5 9.4
2018-Jan-21 18:30N 54°31' W 131°20'6 9.0
2018-Jan-21 17:52N 54°36' W 131°25'151 7.2
2018-Jan-20 21:00N 56°24' W 134°30'320 6.7 050 / 20994.0 5.4 1.1
2018-Jan-18 21:00N 59°12' W 143°00'3030.1 210 / 20 10.8 4.1
2018-Jan-18 20:00N 59°24' W 143°54'   210 / 20988.8 5.4 3.4

Dump ship's entire track history